Terminal Aerodrome Forecast
Issued by NWS Flagstaff, AZ

Home | Current Version | Previous Version | Text Only | Print | Product List | Glossary On
Versions: 1 2 3 4 5 6 7 8 9 10 11 12 13 14 15 16 17 18 19 20 21 22 23
000
FTUS45 KFGZ 291700
TAFFLG
TAF
KFLG 291730Z 2918/3018 09009KT P6SM OVC100
     FM300000 08007KT P6SM VCSH BKN060 OVC090
     FM300300 09006KT 5SM -SHRA SCT020 OVC035
     FM300600 08008KT 3SM -RA BR BKN005 OVC012=

USA.gov is the U.S. government's official web portal to all federal, state and local government web resources and services.